PWSweather.com
Personal Weather Stations
Station Observations
KPAGREEN17
Chestnut Hill Farm, Greensburg, PA 15601

Chestnut Hill FarmGreensburg, PA 15601

Lat: 40.32, Lon: -79.55

Elevation: 1148

Station Type: OR 968

Latest ConditionsUpdated 11:45:02 AM EDT Thursday, Oct 30, 2014
Currently Today's Max Today's Min Today's Average
Temperature 48.0°F8.9°C 48.0°F8.9°C 35.8°F2.1°C 41.5°F5.3°C
Dew Point 36.4°F2.4°C 38.2°F3.4°C 27.6°F-2.4°C 32.1°F0.1°C
Winds 2.3 mph E3.7 kmh E 2.3 mph E3.7 kmh E - 0.3 mph 0.5 kmh
Wind Gusts 2.3 mph3.7 kmh 2.3 mph3.7 kmh - -
Humidity 64% 83% 53% 70%
Pressure 30.16 in1021.3 mb 30.16 in1021.3 mb 30.10 in1019.3 mb -
Hour Temp Dew Point Humidity Winds Wind Gusts Pressure Precip Precip Rate Daily Precip Total
11:45 AM 48.0°F8.9°C 36.4°F2.4°C 64% 2.3 mph E3.7 kmh E 2.3 mph3.7 kmh 30.16 in1021.3 mb 0.00 in0.0 mm 0.00 in/hr0.0 mm/hr 0.00 in0.0 mm
11:30 AM 47.7°F8.7°C 37.2°F2.9°C 67% 2.3 mph E3.7 kmh E 2.3 mph3.7 kmh 30.13 in1020.3 mb 0.00 in0.0 mm 0.00 in/hr0.0 mm/hr 0.00 in0.0 mm
11:15 AM 47.8°F8.8°C 38.2°F3.4°C 69% 2.3 mph E3.7 kmh E 2.3 mph3.7 kmh 30.13 in1020.3 mb 0.00 in0.0 mm 0.00 in/hr0.0 mm/hr 0.00 in0.0 mm
11:00 AM 46.4°F8.0°C 37.1°F2.8°C 70% 2.3 mph E3.7 kmh E 2.3 mph3.7 kmh 30.16 in1021.3 mb 0.00 in0.0 mm 0.00 in/hr0.0 mm/hr 0.00 in0.0 mm
10:45 AM 45.9°F7.7°C 37.1°F2.8°C 71% 2.3 mph E3.7 kmh E 2.3 mph3.7 kmh 30.13 in1020.3 mb 0.00 in0.0 mm 0.00 in/hr0.0 mm/hr 0.00 in0.0 mm
10:30 AM 45.3°F7.4°C 36.5°F2.5°C 71% 1.2 mph S1.9 kmh S 2.3 mph3.7 kmh 30.16 in1021.3 mb 0.00 in0.0 mm 0.00 in/hr0.0 mm/hr 0.00 in0.0 mm
10:15 AM 45.5°F7.5°C 36.3°F2.4°C 70% 1.2 mph W1.9 kmh W 1.2 mph1.9 kmh 30.16 in1021.3 mb 0.00 in0.0 mm 0.00 in/hr0.0 mm/hr 0.00 in0.0 mm
10:00 AM 46.4°F8.0°C 37.5°F3.1°C 71% Calm Calm 1.2 mph1.9 kmh 30.16 in1021.3 mb 0.00 in0.0 mm 0.00 in/hr0.0 mm/hr 0.00 in0.0 mm
09:45 AM 46.0°F7.8°C 38.1°F3.4°C 74% Calm Calm 1.2 mph1.9 kmh 30.16 in1021.3 mb 0.00 in0.0 mm 0.00 in/hr0.0 mm/hr 0.00 in0.0 mm
09:30 AM 45.0°F7.2°C 36.8°F2.7°C 73% 1.2 mph N1.9 kmh N 2.3 mph3.7 kmh 30.16 in1021.3 mb 0.00 in0.0 mm 0.00 in/hr0.0 mm/hr 0.00 in0.0 mm
09:15 AM 43.0°F6.1°C 38.2°F3.4°C 83% Calm Calm -- 30.16 in1021.3 mb 0.00 in0.0 mm 0.00 in/hr0.0 mm/hr 0.00 in0.0 mm
09:00 AM 39.7°F4.3°C 34.6°F1.4°C 82% Calm Calm -- 30.13 in1020.3 mb 0.00 in0.0 mm 0.00 in/hr0.0 mm/hr 0.00 in0.0 mm
08:45 AM 38.8°F3.8°C 33.2°F0.7°C 80% Calm Calm -- 30.16 in1021.3 mb 0.00 in0.0 mm 0.00 in/hr0.0 mm/hr 0.00 in0.0 mm
08:30 AM 39.1°F3.9°C 33.1°F0.6°C 79% Calm Calm -- 30.13 in1020.3 mb 0.00 in0.0 mm 0.00 in/hr0.0 mm/hr 0.00 in0.0 mm
08:15 AM 39.4°F4.1°C 33.4°F0.8°C 79% Calm Calm -- 30.13 in1020.3 mb 0.00 in0.0 mm 0.00 in/hr0.0 mm/hr 0.00 in0.0 mm
08:00 AM 39.6°F4.2°C 33.6°F0.9°C 79% Calm Calm -- 30.13 in1020.3 mb 0.00 in0.0 mm 0.00 in/hr0.0 mm/hr 0.00 in0.0 mm
07:45 AM 39.9°F4.4°C 34.2°F1.2°C 80% Calm Calm -- 30.13 in1020.3 mb 0.00 in0.0 mm 0.00 in/hr0.0 mm/hr 0.00 in0.0 mm
07:30 AM 39.7°F4.3°C 34.4°F1.3°C 81% Calm Calm -- 30.13 in1020.3 mb 0.00 in0.0 mm 0.00 in/hr0.0 mm/hr 0.00 in0.0 mm
07:15 AM 39.0°F3.9°C 33.7°F0.9°C 81% Calm Calm -- 30.13 in1020.3 mb 0.00 in0.0 mm 0.00 in/hr0.0 mm/hr 0.00 in0.0 mm
07:00 AM 38.1°F3.4°C 33.1°F0.6°C 82% Calm Calm -- 30.13 in1020.3 mb 0.00 in0.0 mm 0.00 in/hr0.0 mm/hr 0.00 in0.0 mm
06:45 AM 36.8°F2.7°C 31.5°F-0.3°C 81% Calm Calm -- 30.13 in1020.3 mb 0.00 in0.0 mm 0.00 in/hr0.0 mm/hr 0.00 in0.0 mm
06:30 AM 35.9°F2.2°C 30.0°F-1.1°C 79% Calm Calm -- 30.13 in1020.3 mb 0.00 in0.0 mm 0.00 in/hr0.0 mm/hr 0.00 in0.0 mm
06:15 AM 35.8°F2.1°C 29.3°F-1.5°C 77% Calm Calm -- 30.10 in1019.3 mb 0.00 in0.0 mm 0.00 in/hr0.0 mm/hr 0.00 in0.0 mm
06:00 AM 36.0°F2.2°C 29.1°F-1.6°C 76% Calm Calm -- 30.10 in1019.3 mb 0.00 in0.0 mm 0.00 in/hr0.0 mm/hr 0.00 in0.0 mm
05:45 AM 36.5°F2.5°C 29.3°F-1.5°C 75% Calm Calm -- 30.10 in1019.3 mb 0.00 in0.0 mm 0.00 in/hr0.0 mm/hr 0.00 in0.0 mm
05:30 AM 37.0°F2.8°C 29.2°F-1.6°C 73% Calm Calm -- 30.10 in1019.3 mb 0.00 in0.0 mm 0.00 in/hr0.0 mm/hr 0.00 in0.0 mm
05:15 AM 37.9°F3.3°C 30.1°F-1.1°C 73% Calm Calm -- 30.10 in1019.3 mb 0.00 in0.0 mm 0.00 in/hr0.0 mm/hr 0.00 in0.0 mm
05:00 AM 38.8°F3.8°C 30.6°F-0.8°C 72% Calm Calm -- 30.10 in1019.3 mb 0.00 in0.0 mm 0.00 in/hr0.0 mm/hr 0.00 in0.0 mm
04:45 AM 39.4°F4.1°C 31.1°F-0.5°C 72% Calm Calm -- 30.10 in1019.3 mb 0.00 in0.0 mm 0.00 in/hr0.0 mm/hr 0.00 in0.0 mm
04:30 AM 39.7°F4.3°C 32.1°F0.1°C 74% Calm Calm -- 30.10 in1019.3 mb 0.00 in0.0 mm 0.00 in/hr0.0 mm/hr 0.00 in0.0 mm
04:15 AM 38.8°F3.8°C 31.3°F-0.4°C 74% Calm Calm 1.2 mph1.9 kmh 30.10 in1019.3 mb 0.00 in0.0 mm 0.00 in/hr0.0 mm/hr 0.00 in0.0 mm
04:00 AM 37.8°F3.2°C 29.5°F-1.4°C 72% Calm Calm -- 30.10 in1019.3 mb 0.00 in0.0 mm 0.00 in/hr0.0 mm/hr 0.00 in0.0 mm
03:45 AM 37.6°F3.1°C 28.3°F-2.1°C 69% Calm Calm -- 30.10 in1019.3 mb 0.00 in0.0 mm 0.00 in/hr0.0 mm/hr 0.00 in0.0 mm
03:30 AM 37.9°F3.3°C 28.0°F-2.2°C 67% Calm Calm -- 30.10 in1019.3 mb 0.00 in0.0 mm 0.00 in/hr0.0 mm/hr 0.00 in0.0 mm
03:15 AM 38.5°F3.6°C 28.1°F-2.2°C 66% Calm Calm -- 30.10 in1019.3 mb 0.00 in0.0 mm 0.00 in/hr0.0 mm/hr 0.00 in0.0 mm
03:00 AM 38.8°F3.8°C 27.7°F-2.4°C 64% Calm Calm -- 30.10 in1019.3 mb 0.00 in0.0 mm 0.00 in/hr0.0 mm/hr 0.00 in0.0 mm
02:45 AM 39.6°F4.2°C 27.6°F-2.4°C 62% Calm Calm -- 30.10 in1019.3 mb 0.00 in0.0 mm 0.00 in/hr0.0 mm/hr 0.00 in0.0 mm
02:30 AM 40.6°F4.8°C 27.8°F-2.3°C 60% Calm Calm -- 30.10 in1019.3 mb 0.00 in0.0 mm 0.00 in/hr0.0 mm/hr 0.00 in0.0 mm
02:15 AM 41.9°F5.5°C 28.2°F-2.1°C 58% Calm Calm -- 30.10 in1019.3 mb 0.00 in0.0 mm 0.00 in/hr0.0 mm/hr 0.00 in0.0 mm
02:00 AM 43.2°F6.2°C 28.9°F-1.7°C 57% Calm Calm -- 30.10 in1019.3 mb 0.00 in0.0 mm 0.00 in/hr0.0 mm/hr 0.00 in0.0 mm
01:45 AM 44.1°F6.7°C 29.4°F-1.4°C 56% Calm Calm -- 30.10 in1019.3 mb 0.00 in0.0 mm 0.00 in/hr0.0 mm/hr 0.00 in0.0 mm
01:30 AM 44.9°F7.2°C 29.3°F-1.5°C 54% Calm Calm -- 30.10 in1019.3 mb 0.00 in0.0 mm 0.00 in/hr0.0 mm/hr 0.00 in0.0 mm
01:15 AM 45.9°F7.7°C 30.1°F-1.1°C 54% Calm Calm -- 30.10 in1019.3 mb 0.00 in0.0 mm 0.00 in/hr0.0 mm/hr 0.00 in0.0 mm
01:00 AM 46.0°F7.8°C 30.3°F-0.9°C 54% Calm Calm 2.3 mph3.7 kmh 30.10 in1019.3 mb 0.00 in0.0 mm 0.00 in/hr0.0 mm/hr 0.00 in0.0 mm
12:45 AM 46.0°F7.8°C 29.8°F-1.2°C 53% Calm Calm -- 30.10 in1019.3 mb 0.00 in0.0 mm 0.00 in/hr0.0 mm/hr 0.00 in0.0 mm
12:30 AM 46.2°F7.9°C 30.0°F-1.1°C 53% Calm Calm -- 30.10 in1019.3 mb 0.00 in0.0 mm 0.00 in/hr0.0 mm/hr 0.00 in0.0 mm
12:15 AM 46.2°F7.9°C 30.0°F-1.1°C 53% Calm Calm -- 30.10 in1019.3 mb 0.00 in0.0 mm 0.00 in/hr0.0 mm/hr 0.00 in0.0 mm
12:00 AM 46.0°F7.8°C 29.8°F-1.2°C 53% Calm Calm -- 30.10 in1019.3 mb 0.00 in0.0 mm 0.00 in/hr0.0 mm/hr 0.00 in0.0 mm